createdAt,value
2019-01-20T04:02:06.604Z,13.40
2019-01-20T04:04:54.745Z,13.03
2019-01-20T04:07:42.663Z,11.37
2019-01-20T04:10:30.554Z,12.60
2019-01-20T04:13:18.474Z,12.07
2019-01-20T04:16:06.370Z,12.53
2019-01-20T04:18:54.305Z,12.73
2019-01-20T04:21:42.202Z,11.90
2019-01-20T04:24:30.123Z,13.17
2019-01-20T04:27:18.019Z,11.47
2019-01-20T04:30:06.255Z,12.77
2019-01-20T04:32:54.142Z,12.47
2019-01-20T04:35:42.057Z,12.67
2019-01-20T04:38:29.949Z,12.37
2019-01-20T04:41:17.875Z,12.80
2019-01-20T04:44:05.763Z,12.17
2019-01-20T04:46:53.693Z,12.47
2019-01-20T04:49:41.578Z,13.40
2019-01-20T04:52:29.505Z,12.03
2019-01-20T04:55:17.401Z,12.27
2019-01-20T05:01:00.257Z,12.53
2019-01-20T05:03:39.387Z,12.90
2019-01-20T05:06:27.305Z,12.70
2019-01-20T05:09:15.193Z,11.07
2019-01-20T05:12:03.137Z,12.57
2019-01-20T05:14:51.026Z,12.53
2019-01-20T05:17:38.990Z,11.50
2019-01-20T05:20:26.919Z,12.83
2019-01-20T05:23:14.835Z,12.53
2019-01-20T05:26:02.726Z,13.27
2019-01-20T05:28:50.645Z,11.70
2019-01-20T05:31:38.837Z,12.97
2019-01-20T05:34:26.749Z,12.60
2019-01-20T05:37:14.642Z,12.67
2019-01-20T05:40:02.557Z,13.00
2019-01-20T05:42:50.451Z,12.30
2019-01-20T05:45:38.386Z,12.57
2019-01-20T05:48:26.278Z,11.73
2019-01-20T05:51:14.203Z,12.73
2019-01-20T05:54:02.090Z,12.00
2019-01-20T05:56:50.009Z,13.07
2019-01-20T05:59:37.901Z,12.17
2019-01-20T06:02:25.837Z,13.60
2019-01-20T06:05:04.977Z,12.73
2019-01-20T06:07:52.886Z,12.20
2019-01-20T06:10:40.801Z,12.20
2019-01-20T06:13:28.694Z,12.53
2019-01-20T06:16:16.610Z,12.63
2019-01-20T06:19:04.498Z,12.17
2019-01-20T06:21:52.413Z,11.67
2019-01-20T06:24:40.302Z,12.37
2019-01-20T06:27:28.230Z,12.33
2019-01-20T06:30:17.457Z,13.67
2019-01-20T06:33:05.438Z,12.13
2019-01-20T06:35:53.337Z,12.20
2019-01-20T06:38:41.253Z,11.80
2019-01-20T06:41:29.145Z,13.27
2019-01-20T06:44:17.074Z,11.63
2019-01-20T06:47:04.968Z,12.07
2019-01-20T06:49:52.898Z,11.93
2019-01-20T06:52:40.896Z,12.17
2019-01-20T06:55:28.790Z,12.20
2019-01-20T06:58:16.681Z,12.37
2019-01-20T07:01:04.606Z,12.57
2019-01-20T07:03:52.493Z,12.33
2019-01-20T07:06:31.517Z,12.37
2019-01-20T07:09:19.406Z,11.73
2019-01-20T07:11:48.111Z,12.70
2019-01-20T07:14:36.002Z,12.10
2019-01-20T07:17:23.926Z,12.37
2019-01-20T07:20:11.846Z,13.57
2019-01-20T07:22:59.766Z,11.70
2019-01-20T07:25:47.661Z,12.10
2019-01-20T07:28:35.657Z,12.63
2019-01-20T07:31:23.831Z,13.77
2019-01-20T07:34:11.753Z,12.03
2019-01-20T07:36:59.701Z,14.33
2019-01-20T07:39:47.877Z,12.90
2019-01-20T07:42:35.833Z,13.37
2019-01-20T07:45:24.072Z,13.10
2019-01-20T07:48:12.010Z,12.67
2019-01-20T07:50:59.936Z,12.37
2019-01-20T07:53:38.754Z,14.57
2019-01-20T07:56:26.925Z,12.53
2019-01-20T07:59:14.810Z,13.20
2019-01-20T08:02:02.721Z,12.80
2019-01-20T08:04:50.609Z,13.80
2019-01-20T08:07:38.524Z,15.27
2019-01-20T08:10:27.441Z,14.30
2019-01-20T08:13:15.618Z,15.33
2019-01-20T08:16:03.581Z,13.90
2019-01-20T08:18:51.498Z,13.43
2019-01-20T08:21:39.391Z,13.80
2019-01-20T08:24:27.317Z,14.10
2019-01-20T08:27:15.210Z,14.05
2019-01-20T08:30:03.130Z,14.10
2019-01-20T08:32:51.029Z,15.17
2019-01-20T08:38:33.221Z,15.10
2019-01-20T08:41:21.154Z,15.47
2019-01-20T08:44:09.950Z,15.77
2019-01-20T08:47:17.177Z,17.50
2019-01-20T08:50:07.737Z,17.47
2019-01-20T08:52:55.953Z,17.70
2019-01-20T08:55:36.338Z,18.30
2019-01-20T08:58:14.840Z,17.00
2019-01-20T09:01:02.762Z,17.67
2019-01-20T09:03:50.674Z,19.33
2019-01-20T09:06:38.722Z,21.53
2019-01-20T09:09:26.654Z,23.60
2019-01-20T09:12:14.538Z,22.67
2019-01-20T09:15:02.476Z,23.93
2019-01-20T09:17:50.625Z,24.30
2019-01-20T09:20:38.858Z,23.73
2019-01-20T09:26:55.205Z,25.20
2019-01-20T09:29:43.193Z,23.73
2019-01-20T09:32:31.121Z,24.30
2019-01-20T09:35:19.013Z,22.80
2019-01-20T09:38:06.942Z,26.43
2019-01-20T09:40:54.846Z,23.53
2019-01-20T09:43:47.139Z,24.30
2019-01-20T09:46:32.402Z,24.57
2019-01-20T09:49:20.376Z,24.83
2019-01-20T09:52:08.261Z,23.77
2019-01-20T09:54:56.186Z,23.57
2019-01-20T09:57:36.842Z,25.53
2019-01-20T10:00:16.133Z,24.90
2019-01-20T10:03:04.026Z,23.73
2019-01-20T10:05:51.937Z,24.40
2019-01-20T10:08:39.830Z,23.30
2019-01-20T10:11:27.745Z,24.07
2019-01-20T10:14:15.638Z,22.30
2019-01-20T10:17:03.659Z,22.97
2019-01-20T10:19:51.548Z,25.17
2019-01-20T10:22:39.461Z,26.20
2019-01-20T10:25:27.375Z,22.87
2019-01-20T10:28:16.825Z,25.10
2019-01-20T10:31:05.980Z,26.47
2019-01-20T10:33:54.350Z,26.13
2019-01-20T10:36:42.245Z,26.80
2019-01-20T10:39:30.161Z,25.70
2019-01-20T10:42:18.486Z,24.37
2019-01-20T10:45:06.798Z,26.30
2019-01-20T10:47:54.690Z,28.73
2019-01-20T10:50:42.685Z,29.93
2019-01-20T10:53:30.588Z,28.93
2019-01-20T10:56:18.489Z,26.30
2019-01-20T10:58:57.216Z,27.33
2019-01-20T11:01:45.144Z,27.90
2019-01-20T11:04:33.090Z,27.87
2019-01-20T11:07:21.014Z,25.50
2019-01-20T11:10:09.105Z,27.70
2019-01-20T11:12:57.030Z,28.93
2019-01-20T11:15:45.038Z,28.53
2019-01-20T11:18:32.956Z,30.33
2019-01-20T11:21:20.877Z,27.53
2019-01-20T11:24:08.886Z,29.37
2019-01-20T11:26:56.815Z,26.37
2019-01-20T11:29:44.734Z,28.13
2019-01-20T11:32:32.630Z,25.50
2019-01-20T11:35:20.553Z,27.43
2019-01-20T11:38:08.457Z,27.33
2019-01-20T11:40:56.374Z,26.23
2019-01-20T11:43:44.265Z,27.17
2019-01-20T11:46:32.177Z,29.13
2019-01-20T11:49:20.085Z,28.50
2019-01-20T11:52:08.008Z,27.90
2019-01-20T11:54:55.940Z,29.17
2019-01-20T12:00:29.843Z,25.37
2019-01-20T12:03:17.757Z,29.13
2019-01-20T12:06:05.641Z,27.20
2019-01-20T12:08:53.564Z,28.67
2019-01-20T12:11:41.794Z,28.47
2019-01-20T12:14:29.814Z,28.53
2019-01-20T12:17:17.702Z,28.20
2019-01-20T12:20:05.850Z,29.20
2019-01-20T12:22:53.743Z,31.57
2019-01-20T12:25:41.691Z,30.63
2019-01-20T12:28:29.582Z,28.10
2019-01-20T12:31:17.557Z,32.13
2019-01-20T12:34:05.451Z,28.20
2019-01-20T12:36:53.381Z,26.97
2019-01-20T12:39:41.340Z,29.07
2019-01-20T12:42:29.267Z,27.93
2019-01-20T12:45:17.161Z,28.07
2019-01-20T12:48:05.220Z,27.20
2019-01-20T12:50:53.113Z,29.87
2019-01-20T12:53:41.041Z,29.37
2019-01-20T12:59:36.043Z,30.13
2019-01-20T13:02:17.189Z,28.43
2019-01-20T13:05:05.172Z,28.70
2019-01-20T13:07:53.213Z,27.07
2019-01-20T13:10:41.138Z,30.67
2019-01-20T13:13:29.050Z,31.23
2019-01-20T13:16:16.974Z,28.53
2019-01-20T13:19:04.877Z,29.33
2019-01-20T13:21:52.791Z,28.43
2019-01-20T13:24:40.973Z,30.40
2019-01-20T13:27:28.925Z,29.23
2019-01-20T13:30:17.706Z,30.40
2019-01-20T13:33:05.649Z,28.80
2019-01-20T13:35:53.554Z,28.00
2019-01-20T13:38:41.473Z,29.90
2019-01-20T13:41:30.270Z,27.33
2019-01-20T13:44:18.195Z,29.23
2019-01-20T13:47:06.102Z,26.70
2019-01-20T13:49:54.045Z,30.17
2019-01-20T13:52:41.937Z,28.90
2019-01-20T13:55:29.862Z,29.30
2019-01-20T13:58:17.749Z,29.30
2019-01-20T14:01:05.675Z,28.20
2019-01-20T14:03:44.357Z,28.77
2019-01-20T14:06:32.273Z,30.23
2019-01-20T14:09:20.176Z,30.70
2019-01-20T14:12:08.109Z,29.10
2019-01-20T14:14:56.011Z,28.90
2019-01-20T14:17:43.961Z,30.80
2019-01-20T14:20:31.853Z,31.63
2019-01-20T14:23:19.784Z,31.67
2019-01-20T14:26:07.673Z,31.20
2019-01-20T14:28:55.593Z,33.77
2019-01-20T14:31:43.489Z,32.43
2019-01-20T14:34:31.410Z,32.13
2019-01-20T14:37:19.306Z,33.57
2019-01-20T14:40:08.042Z,31.10
2019-01-20T14:42:55.941Z,31.27
2019-01-20T14:45:43.861Z,31.63
2019-01-20T14:48:32.217Z,30.63
2019-01-20T14:51:21.426Z,30.80
2019-01-20T14:54:09.318Z,31.37
2019-01-20T14:56:57.593Z,32.13
2019-01-20T14:59:45.494Z,34.17
2019-01-20T15:02:33.410Z,32.13
2019-01-20T15:05:13.828Z,29.90
2019-01-20T15:07:52.459Z,31.13
2019-01-20T15:10:40.413Z,32.63
2019-01-20T15:13:28.341Z,32.07
2019-01-20T15:16:16.294Z,31.10
2019-01-20T15:19:04.209Z,31.53
2019-01-20T15:21:52.105Z,33.63
2019-01-20T15:27:33.601Z,29.53
2019-01-20T15:33:36.864Z,31.77
2019-01-20T15:36:24.798Z,32.03
2019-01-20T15:39:12.724Z,33.17
2019-01-20T15:42:00.622Z,30.13
2019-01-20T15:44:48.560Z,32.27
2019-01-20T15:47:36.446Z,29.77
2019-01-20T15:50:25.565Z,30.27
2019-01-20T15:53:13.502Z,29.83
2019-01-20T15:56:01.505Z,30.03
2019-01-20T15:58:49.597Z,30.13
2019-01-20T16:01:37.587Z,31.17
2019-01-20T16:04:25.796Z,31.03
2019-01-20T16:07:06.402Z,31.17
2019-01-20T16:09:45.346Z,30.37
2019-01-20T16:12:33.274Z,31.63
2019-01-20T16:15:24.589Z,31.33
2019-01-20T16:18:14.375Z,31.70
2019-01-20T16:21:01.423Z,30.27
2019-01-20T16:23:49.329Z,30.13
2019-01-20T16:26:37.221Z,31.73
2019-01-20T16:29:25.178Z,31.87
2019-01-20T16:32:13.074Z,31.63
2019-01-20T16:35:00.999Z,30.83
2019-01-20T16:37:48.923Z,32.23
2019-01-20T16:40:36.836Z,32.03
2019-01-20T16:43:24.725Z,31.30
2019-01-20T16:46:12.637Z,32.40
2019-01-20T16:49:00.529Z,30.03
2019-01-20T16:51:48.449Z,31.10
2019-01-20T16:54:36.342Z,31.17
2019-01-20T16:57:24.268Z,32.43
2019-01-20T17:00:13.787Z,32.33
2019-01-20T17:03:01.709Z,29.50
2019-01-20T17:05:49.856Z,27.77
2019-01-20T17:08:37.805Z,30.13
2019-01-20T17:11:25.693Z,28.07
2019-01-20T17:14:13.605Z,27.93
2019-01-20T17:17:01.530Z,29.70
2019-01-20T17:19:49.454Z,30.53
2019-01-20T17:22:18.396Z,29.20
2019-01-20T17:25:06.785Z,30.37
2019-01-20T17:27:54.681Z,28.97
2019-01-20T17:30:42.607Z,27.63
2019-01-20T17:33:30.506Z,25.17
2019-01-20T17:36:18.426Z,27.40
2019-01-20T17:39:11.901Z,27.17
2019-01-20T17:44:51.614Z,27.17
2019-01-20T17:47:39.537Z,28.30
2019-01-20T17:50:28.557Z,29.93
2019-01-20T17:53:16.475Z,28.43
2019-01-20T17:56:04.375Z,29.53
2019-01-20T17:58:52.310Z,28.97
2019-01-20T18:01:40.208Z,29.67
2019-01-20T18:04:28.157Z,26.67
2019-01-20T18:07:16.050Z,31.10
2019-01-20T18:09:56.634Z,29.63
2019-01-20T18:12:35.060Z,29.13
2019-01-20T18:15:22.998Z,30.30
2019-01-20T18:18:10.898Z,29.00
2019-01-20T18:20:58.806Z,32.13
2019-01-20T18:23:46.694Z,32.90
2019-01-20T18:26:34.609Z,32.30
2019-01-20T18:29:22.503Z,30.43
2019-01-20T18:32:10.430Z,30.60
2019-01-20T18:34:58.322Z,27.63
2019-01-20T18:37:46.256Z,27.67
2019-01-20T18:40:34.517Z,28.83
2019-01-20T18:43:22.454Z,29.63
2019-01-20T18:45:51.125Z,28.23
2019-01-20T18:48:39.050Z,27.47
2019-01-20T18:51:26.946Z,30.50
2019-01-20T18:54:14.862Z,29.47
2019-01-20T18:57:02.758Z,28.43
2019-01-20T18:59:50.673Z,29.67
2019-01-20T19:02:38.571Z,29.20
2019-01-20T19:05:26.498Z,28.33
2019-01-20T19:08:14.381Z,29.37
2019-01-20T19:11:02.417Z,29.77
2019-01-20T19:13:50.297Z,31.40
2019-01-20T19:16:38.213Z,31.53
2019-01-20T19:19:26.114Z,28.80
2019-01-20T19:22:14.968Z,28.23
2019-01-20T19:25:03.708Z,29.03
2019-01-20T19:27:51.879Z,29.20
2019-01-20T19:30:39.765Z,29.23
2019-01-20T19:33:27.679Z,28.37
2019-01-20T19:36:15.569Z,30.00
2019-01-20T19:42:17.894Z,27.43
2019-01-20T19:45:06.390Z,28.50
2019-01-20T19:47:54.313Z,28.27
2019-01-20T19:53:49.241Z,28.43
2019-01-20T19:56:37.142Z,28.70
2019-01-20T19:59:25.077Z,29.07
2019-01-20T20:02:12.969Z,29.40
2019-01-20T20:05:01.166Z,29.03
2019-01-20T20:07:49.322Z,28.13
2019-01-20T20:10:37.242Z,29.13
2019-01-20T20:13:15.818Z,29.10
2019-01-20T20:16:04.025Z,29.80
2019-01-20T20:18:51.904Z,30.77
2019-01-20T20:21:39.830Z,29.67
2019-01-20T20:24:27.722Z,27.43
2019-01-20T20:27:15.639Z,26.97
2019-01-20T20:30:04.061Z,29.10
2019-01-20T20:32:51.977Z,32.47
2019-01-20T20:35:40.169Z,32.87
2019-01-20T20:38:28.085Z,31.53
2019-01-20T20:41:15.978Z,32.03
2019-01-20T20:44:03.919Z,36.57
2019-01-20T20:46:51.827Z,35.90
2019-01-20T20:49:40.002Z,29.17
2019-01-20T20:52:27.871Z,28.53
2019-01-20T20:54:56.531Z,29.67
2019-01-20T20:57:44.446Z,30.43
2019-01-20T21:00:36.528Z,29.83
2019-01-20T21:03:43.729Z,31.30
2019-01-20T21:06:31.686Z,31.87
2019-01-20T21:09:19.653Z,30.63
2019-01-20T21:12:07.570Z,30.70
2019-01-20T21:14:46.407Z,29.13
2019-01-20T21:17:34.597Z,31.37
2019-01-20T21:20:22.515Z,30.07
2019-01-20T21:23:12.277Z,30.60
2019-01-20T21:26:00.145Z,29.30
2019-01-20T21:31:41.582Z,30.37
2019-01-20T21:34:29.502Z,28.20
2019-01-20T21:37:17.611Z,28.00
2019-01-20T21:40:05.633Z,29.07
2019-01-20T21:42:53.675Z,31.43
2019-01-20T21:45:41.590Z,30.00
2019-01-20T21:48:29.486Z,32.47
2019-01-20T21:51:17.401Z,34.23
2019-01-20T21:57:12.374Z,29.80
2019-01-20T22:00:00.262Z,30.27
2019-01-20T22:02:48.269Z,37.20
2019-01-20T22:05:36.153Z,31.17
2019-01-20T22:08:24.079Z,32.00
2019-01-20T22:11:11.969Z,30.97
2019-01-20T22:13:59.908Z,29.90
2019-01-20T22:16:40.514Z,31.93
2019-01-20T22:19:21.134Z,31.77
2019-01-20T22:21:59.621Z,33.83
2019-01-20T22:24:47.540Z,31.07
2019-01-20T22:27:35.435Z,32.17
2019-01-20T22:30:24.430Z,34.80
2019-01-20T22:33:12.323Z,31.43
2019-01-20T22:36:00.241Z,31.73
2019-01-20T22:38:48.127Z,33.07
2019-01-20T22:41:36.043Z,32.33
2019-01-20T22:44:23.938Z,33.77
2019-01-20T22:47:11.857Z,31.93
2019-01-20T22:49:59.746Z,29.50
2019-01-20T22:52:47.663Z,32.63
2019-01-20T22:55:35.562Z,32.53
2019-01-20T22:58:23.474Z,33.30
